St Gallen Altenrhein Airport

Airport
ICAO code: 
LSZR
IATA Code: 
ACH
Summary
ICAO Region: 
EUR
Territory: 
Location: 
Altenrhein, Sankt Gallen
Serving: 
Rorschach
Elevation: 
1306 ft
Coordinates: 
Aerial View: 
47° 29' 6.119" N, 9° 33' 38.79" E
Metar
Observation
LSZR 171520Z 29007KT 9999 BKN060 05/05 Q1034 NOSIG RMK L
Station
Saint Gallen-Altenrhein
Date/Time
2022-01-17 15:20:00
Wind direction
290°
Wind speed
07 kts
Lowest cloud amount
broken clouds
Temperature
5°C
Dew point
5°C
Humidity
100%
QNH
1034 hPa
Weather condition
n/a

A small airport in Altenrhein in the Canton of St. Gallen, Switzerland near Lake Constance.

Climatology

Humid “subtropical” climate (Köppen climate classification Cfa)

Runways

Designator Length Width Surface Rops
10/28 0 0 UNK Yes/Yes
10L/28R 600 23 GRS No/No
10R/28L 1500 30 ASPHALT No/No
Airport map: 
Aerial View: 

SKYbrary Partners:

Safety knowledge contributed by: